Elmira Corning Regional Airport
KELM : now visible

Airfield :











YOU CAN JOIN US ON...

 
LOGIN :

Register | Disclaimer

   EN    FR    IT 

 









Legend :    VFR   Marginal VFR   IFR   Intensive IFR   Very Intensive IFR
Visi :
Ceiling :
>= 8 km
>= 3000ft
5 to 8 km
1000 to 3000 ft
1500m to 5 km
500 to 1000 ft
800 to 1500m
200 to 500 ft
< 800m
< 200 ft
Symbols :   Thunderstorms  Fog  Heavy snow  Heavy precipitations  Wind > 20 kt






- Airport Elevation : 954 ft
- IATA code : ELM


KELM - Elmira Corning Regional

CURRENT METAR :
  • 192053Z 24004KT 10SM CLR 26/12 A3012 RMK AO2 SLP195 T02610117 58009

EXPIRED METARs :
  • 191953Z 00000KT 10SM SCT065 27/11 A3012 RMK AO2 SLP197 T02670106
  • 191853Z VRB04KT 10SM SCT060 26/12 A3014 RMK AO2 SLP202 T02610122
  • 191753Z 00000KT 10SM BKN060 26/12 A3015 RMK AO2 SLP205 T02560122 10256 20156 58012
  • 191653Z VRB05KT 10SM BKN055 24/13 A3016 RMK AO2 SLP211 T02440133

TAF KELM
Valid from the 19 at 18:00 until the 20 at 18:00 UTC


191730Z 1918/2018 26005KT P6SM BKN060
FM192200 00000KT P6SM FEW250
TEMPO 2009/2012 3SM BR SCT003
FM201300 24003KT P6SM BKN250
KZNY FIR / North America



MET'MAP, your aeronautical weather chart ! - Copyright ORBIFLY December 2007 - Disclaimer

ORBIFLY MET'MAP TEAM :

Programming & Development : Alexandra Zaïnal
Original concept : Baudouin d'Aumeries
Technical & hardware support : Manuel Goepfert
Assistance : Marc-Olivier Méhu




SOURCES & CREDITS :

   NOAA       Earth
Advisory